createdAt,value
2019-02-17T00:00:26.803Z,102664.45
2019-02-17T00:01:26.953Z,102664.70
2019-02-17T00:02:27.620Z,102664.66
2019-02-17T00:02:37.025Z,102666.33
2019-02-17T00:03:38.230Z,102666.06
2019-02-17T00:04:38.855Z,102665.91
2019-02-17T00:05:39.614Z,102665.97
2019-02-17T00:06:40.316Z,102665.64
2019-02-17T00:07:40.953Z,102664.89
2019-02-17T00:08:41.520Z,102664.79
2019-02-17T00:09:42.106Z,102664.45
2019-02-17T00:10:43.026Z,102664.72
2019-02-17T00:11:43.925Z,102664.11
2019-02-17T00:12:44.876Z,102664.41
2019-02-17T00:13:45.525Z,102663.91
2019-02-17T00:14:46.149Z,102663.83
2019-02-17T00:15:47.128Z,102663.50
2019-02-17T00:16:47.819Z,102663.64
2019-02-17T00:17:48.454Z,102663.55
2019-02-17T00:18:49.313Z,102663.62
2019-02-17T00:19:49.474Z,102663.27
2019-02-17T00:20:50.239Z,102663.17
2019-02-17T00:21:51.154Z,102663.66
2019-02-17T00:22:51.818Z,102663.96
2019-02-17T00:23:52.125Z,102664.44
2019-02-17T00:24:52.840Z,102664.59
2019-02-17T00:25:53.714Z,102665.27
2019-02-17T00:26:53.741Z,102665.23
2019-02-17T00:27:54.464Z,102665.47
2019-02-17T00:28:59.384Z,102665.47
2019-02-17T00:29:54.992Z,102665.38
2019-02-17T00:30:56.576Z,102665.79
2019-02-17T00:31:57.302Z,102666.09
2019-02-17T00:32:58.018Z,102666.08
2019-02-17T00:33:58.651Z,102666.05
2019-02-17T00:34:59.558Z,102666.47
2019-02-17T00:36:00.198Z,102666.67
2019-02-17T00:37:00.921Z,102667.34
2019-02-17T00:38:01.590Z,102667.92
2019-02-17T00:39:02.356Z,102667.96
2019-02-17T00:40:03.014Z,102668.55
2019-02-17T00:41:03.690Z,102668.92
2019-02-17T00:42:04.512Z,102669.13
2019-02-17T00:43:05.168Z,102669.31
2019-02-17T00:44:06.090Z,102669.29
2019-02-17T00:45:06.716Z,102669.59
2019-02-17T00:46:07.389Z,102669.38
2019-02-17T00:47:08.335Z,102669.36
2019-02-17T00:48:08.917Z,102668.74
2019-02-17T00:48:18.935Z,102659.23
2019-02-17T00:49:20.292Z,102659.23
2019-02-17T00:50:21.236Z,102659.23
2019-02-17T00:51:21.877Z,102659.56
2019-02-17T00:52:22.437Z,102659.36
2019-02-17T00:53:22.977Z,102659.21
2019-02-17T00:54:23.728Z,102659.23
2019-02-17T00:55:24.485Z,102659.16
2019-02-17T00:56:25.368Z,102658.52
2019-02-17T00:57:26.053Z,102658.20
2019-02-17T00:58:26.698Z,102657.14
2019-02-17T00:59:27.435Z,102656.97
2019-02-17T01:00:28.047Z,102656.89
2019-02-17T01:01:28.769Z,102656.25
2019-02-17T01:02:29.336Z,102655.77
2019-02-17T01:03:29.996Z,102655.30
2019-02-17T01:04:30.687Z,102654.97
2019-02-17T01:05:31.408Z,102654.33
2019-02-17T01:06:32.189Z,102654.09
2019-02-17T01:07:32.844Z,102653.91
2019-02-17T01:08:33.400Z,102653.45
2019-02-17T01:09:34.137Z,102653.37
2019-02-17T01:10:34.782Z,102652.84
2019-02-17T01:11:35.423Z,102651.99
2019-02-17T01:12:35.955Z,102652.06
2019-02-17T01:13:36.722Z,102651.97
2019-02-17T01:14:37.537Z,102651.95
2019-02-17T01:15:38.100Z,102652.36
2019-02-17T01:16:38.751Z,102652.23
2019-02-17T01:17:38.544Z,102652.24
2019-02-17T01:18:40.031Z,102652.55
2019-02-17T01:19:40.834Z,102652.27
2019-02-17T01:20:40.520Z,102652.14
2019-02-17T01:21:42.153Z,102652.22
2019-02-17T01:22:42.783Z,102651.67
2019-02-17T01:23:43.439Z,102651.42
2019-02-17T01:24:44.126Z,102651.62
2019-02-17T01:25:44.978Z,102651.08
2019-02-17T01:26:45.745Z,102650.98
2019-02-17T01:27:46.291Z,102651.27
2019-02-17T01:28:47.116Z,102650.92
2019-02-17T01:29:47.300Z,102650.89
2019-02-17T01:30:48.216Z,102651.02
2019-02-17T01:31:49.021Z,102650.75
2019-02-17T01:32:49.729Z,102650.63
2019-02-17T01:33:50.265Z,102650.11
2019-02-17T01:34:50.802Z,102649.98
2019-02-17T01:35:01.819Z,102644.13
2019-02-17T01:36:03.289Z,102644.29
2019-02-17T01:37:03.836Z,102644.29
2019-02-17T01:38:04.653Z,102644.13
2019-02-17T01:39:05.380Z,102644.63
2019-02-17T01:40:06.010Z,102644.79
2019-02-17T01:41:06.778Z,102644.42
2019-02-17T01:42:07.477Z,102644.42
2019-02-17T01:43:08.067Z,102643.66
2019-02-17T01:44:08.857Z,102644.16
2019-02-17T01:45:09.408Z,102643.33
2019-02-17T01:46:10.028Z,102643.43
2019-02-17T01:47:10.657Z,102643.67
2019-02-17T01:48:11.228Z,102643.73
2019-02-17T01:49:11.928Z,102643.74
2019-02-17T01:50:12.676Z,102643.55
2019-02-17T01:51:12.493Z,102644.31
2019-02-17T01:52:14.068Z,102644.81
2019-02-17T01:53:14.811Z,102645.38
2019-02-17T01:54:15.801Z,102645.30
2019-02-17T01:55:15.812Z,102645.97
2019-02-17T01:56:16.518Z,102645.90
2019-02-17T01:57:17.287Z,102646.59
2019-02-17T01:58:17.935Z,102646.59
2019-02-17T01:59:18.519Z,102646.69
2019-02-17T02:00:19.207Z,102646.35
2019-02-17T02:01:19.756Z,102646.02
2019-02-17T02:02:20.697Z,102645.69
2019-02-17T02:03:21.266Z,102644.86
2019-02-17T02:04:21.949Z,102644.19
2019-02-17T02:05:22.836Z,102643.42
2019-02-17T02:06:23.509Z,102642.09
2019-02-17T02:07:24.112Z,102641.17
2019-02-17T02:08:24.672Z,102640.74
2019-02-17T02:09:25.512Z,102640.25
2019-02-17T02:10:25.032Z,102639.22
2019-02-17T02:11:26.610Z,102638.05
2019-02-17T02:12:27.364Z,102636.80
2019-02-17T02:13:28.313Z,102635.80
2019-02-17T02:14:29.016Z,102635.13
2019-02-17T02:15:29.691Z,102634.23
2019-02-17T02:16:30.526Z,102633.33
2019-02-17T02:17:31.273Z,102633.00
2019-02-17T02:18:32.126Z,102632.40
2019-02-17T02:19:32.939Z,102632.05
2019-02-17T02:20:33.514Z,102631.38
2019-02-17T02:20:44.079Z,102619.38
2019-02-17T02:21:45.618Z,102619.28
2019-02-17T02:22:46.392Z,102619.52
2019-02-17T02:23:46.435Z,102619.67
2019-02-17T02:24:47.002Z,102619.68
2019-02-17T02:25:47.643Z,102619.55
2019-02-17T02:26:48.580Z,102619.36
2019-02-17T02:27:49.348Z,102619.38
2019-02-17T02:28:50.179Z,102619.31
2019-02-17T02:29:50.975Z,102619.86
2019-02-17T02:30:51.709Z,102620.11
2019-02-17T02:31:52.398Z,102620.48
2019-02-17T02:32:53.197Z,102620.13
2019-02-17T02:33:53.799Z,102619.67
2019-02-17T02:34:54.644Z,102619.05
2019-02-17T02:35:55.239Z,102618.89
2019-02-17T02:36:55.854Z,102618.70
2019-02-17T02:37:56.710Z,102618.17
2019-02-17T02:38:57.591Z,102618.05
2019-02-17T02:39:58.338Z,102617.92
2019-02-17T02:40:59.262Z,102617.88
2019-02-17T02:41:59.237Z,102618.02
2019-02-17T02:43:00.198Z,102617.83
2019-02-17T02:44:01.054Z,102618.27
2019-02-17T02:45:02.001Z,102618.08
2019-02-17T02:46:01.539Z,102617.73
2019-02-17T02:47:03.483Z,102617.20
2019-02-17T02:48:03.228Z,102617.24
2019-02-17T02:49:04.835Z,102617.55
2019-02-17T02:50:04.638Z,102616.95
2019-02-17T02:51:06.286Z,102616.34
2019-02-17T02:52:06.923Z,102615.71
2019-02-17T02:53:07.570Z,102615.12
2019-02-17T02:54:08.117Z,102614.17
2019-02-17T02:55:08.880Z,102614.05
2019-02-17T02:56:09.768Z,102613.45
2019-02-17T02:57:10.434Z,102613.09
2019-02-17T02:58:11.043Z,102612.83
2019-02-17T02:59:11.629Z,102611.97
2019-02-17T03:00:12.601Z,102611.71
2019-02-17T03:01:13.563Z,102611.19
2019-02-17T03:02:14.203Z,102610.73
2019-02-17T03:03:13.767Z,102610.47
2019-02-17T03:04:15.413Z,102610.04
2019-02-17T03:05:15.994Z,102609.78
2019-02-17T03:06:16.628Z,102609.58
2019-02-17T03:07:17.223Z,102609.42
2019-02-17T03:08:18.048Z,102608.89
2019-02-17T03:08:27.079Z,102602.11
2019-02-17T03:09:27.724Z,102602.11
2019-02-17T03:10:29.361Z,102601.95
2019-02-17T03:11:29.410Z,102601.95
2019-02-17T03:12:30.196Z,102601.72
2019-02-17T03:13:30.789Z,102602.22
2019-02-17T03:14:31.547Z,102602.44
2019-02-17T03:15:32.173Z,102602.47
2019-02-17T03:16:32.770Z,102602.47
2019-02-17T03:17:33.411Z,102602.33
2019-02-17T03:18:34.062Z,102601.56
2019-02-17T03:19:34.629Z,102601.43
2019-02-17T03:20:35.446Z,102600.70
2019-02-17T03:21:35.596Z,102599.94
2019-02-17T03:22:36.150Z,102600.00
2019-02-17T03:23:36.774Z,102599.67
2019-02-17T03:24:37.460Z,102598.74
2019-02-17T03:25:38.080Z,102598.67
2019-02-17T03:26:38.802Z,102598.17
2019-02-17T03:27:39.460Z,102597.77
2019-02-17T03:28:40.298Z,102597.84
2019-02-17T03:29:40.837Z,102597.91
2019-02-17T03:30:41.490Z,102596.91
2019-02-17T03:31:42.297Z,102596.16
2019-02-17T03:32:43.125Z,102595.66
2019-02-17T03:33:43.897Z,102595.56
2019-02-17T03:34:44.512Z,102595.23
2019-02-17T03:35:44.668Z,102594.73
2019-02-17T03:36:44.187Z,102594.47
2019-02-17T03:37:45.775Z,102593.94
2019-02-17T03:38:46.570Z,102593.84
2019-02-17T03:39:47.190Z,102593.75
2019-02-17T03:40:47.887Z,102593.66
2019-02-17T03:41:47.564Z,102593.59
2019-02-17T03:42:49.203Z,102593.66
2019-02-17T03:43:49.775Z,102593.92
2019-02-17T03:44:50.464Z,102593.95
2019-02-17T03:45:51.037Z,102594.20
2019-02-17T03:46:52.060Z,102594.00
2019-02-17T03:47:52.698Z,102594.17
2019-02-17T03:48:52.958Z,102594.24
2019-02-17T03:49:53.592Z,102594.55
2019-02-17T03:50:54.264Z,102594.78
2019-02-17T03:51:54.479Z,102595.02
2019-02-17T03:52:55.077Z,102595.16
2019-02-17T03:53:55.751Z,102594.96
2019-02-17T03:54:56.488Z,102594.60
2019-02-17T03:55:05.545Z,102593.33
2019-02-17T03:56:06.879Z,102592.73
2019-02-17T03:57:07.481Z,102592.99
2019-02-17T03:58:08.048Z,102592.66
2019-02-17T03:59:08.777Z,102592.89
2019-02-17T04:00:16.984Z,102592.39
2019-02-17T04:01:09.178Z,102591.99
2019-02-17T04:02:11.050Z,102591.83
2019-02-17T04:03:11.720Z,102591.53
2019-02-17T04:04:11.397Z,102591.42
2019-02-17T04:05:13.228Z,102590.69
2019-02-17T04:06:12.281Z,102590.20
2019-02-17T04:07:14.243Z,102589.80
2019-02-17T04:08:14.323Z,102589.23
2019-02-17T04:09:14.896Z,102588.96
2019-02-17T04:10:15.626Z,102588.80
2019-02-17T04:11:16.545Z,102588.73
2019-02-17T04:12:17.029Z,102588.20
2019-02-17T04:13:17.540Z,102588.63
2019-02-17T04:14:18.047Z,102587.97
2019-02-17T04:15:18.692Z,102588.14
2019-02-17T04:16:19.377Z,102588.40
2019-02-17T04:17:19.837Z,102588.40
2019-02-17T04:18:20.495Z,102587.97
2019-02-17T04:19:21.150Z,102588.00
2019-02-17T04:20:21.591Z,102588.16
2019-02-17T04:21:22.422Z,102588.72
2019-02-17T04:22:23.086Z,102588.16
2019-02-17T04:23:31.287Z,102588.33
2019-02-17T04:24:23.467Z,102588.39
2019-02-17T04:25:24.621Z,102588.23
2019-02-17T04:26:25.227Z,102587.89
2019-02-17T04:27:26.178Z,102587.83
2019-02-17T04:28:26.867Z,102587.27
2019-02-17T04:29:27.475Z,102587.42
2019-02-17T04:30:29.628Z,102587.02
2019-02-17T04:31:27.661Z,102587.22
2019-02-17T04:32:29.186Z,102586.63
2019-02-17T04:33:29.944Z,102585.79
2019-02-17T04:34:30.538Z,102585.55
2019-02-17T04:35:31.291Z,102585.39
2019-02-17T04:36:32.037Z,102584.89
2019-02-17T04:37:32.835Z,102585.06
2019-02-17T04:38:33.409Z,102584.70
2019-02-17T04:39:34.257Z,102584.10
2019-02-17T04:40:34.861Z,102583.70
2019-02-17T04:41:35.683Z,102582.84
2019-02-17T04:42:36.353Z,102581.84
2019-02-17T04:43:36.643Z,102581.25
2019-02-17T04:43:45.669Z,102568.36
2019-02-17T04:44:47.544Z,102567.77
2019-02-17T04:45:48.392Z,102567.92
2019-02-17T04:46:48.855Z,102567.83
2019-02-17T04:47:49.500Z,102567.77
2019-02-17T04:48:50.114Z,102567.80
2019-02-17T04:49:50.710Z,102567.88
2019-02-17T04:50:51.323Z,102568.11
2019-02-17T04:51:51.956Z,102568.02
2019-02-17T04:52:52.648Z,102568.08
2019-02-17T04:53:53.294Z,102567.89
2019-02-17T04:54:53.938Z,102568.26
2019-02-17T04:55:54.554Z,102567.93
2019-02-17T04:56:55.238Z,102567.91
2019-02-17T04:57:56.066Z,102568.27
2019-02-17T04:58:56.666Z,102568.17
2019-02-17T04:59:57.360Z,102568.52
2019-02-17T05:00:57.967Z,102568.31
2019-02-17T05:01:58.761Z,102568.58
2019-02-17T05:02:59.515Z,102568.48
2019-02-17T05:04:00.389Z,102568.22
2019-02-17T05:05:00.439Z,102567.89
2019-02-17T05:06:00.090Z,102567.19
2019-02-17T05:07:00.218Z,102567.09
2019-02-17T05:08:01.863Z,102566.43
2019-02-17T05:09:02.501Z,102566.33
2019-02-17T05:10:03.286Z,102566.00
2019-02-17T05:11:04.073Z,102565.84
2019-02-17T05:12:04.676Z,102565.74
2019-02-17T05:13:05.360Z,102565.25
2019-02-17T05:14:06.076Z,102565.28
2019-02-17T05:15:06.664Z,102564.78
2019-02-17T05:16:07.495Z,102564.86
2019-02-17T05:17:08.156Z,102564.69
2019-02-17T05:18:08.834Z,102564.00
2019-02-17T05:19:09.504Z,102564.33
2019-02-17T05:20:10.297Z,102563.77
2019-02-17T05:21:10.359Z,102563.77
2019-02-17T05:22:10.894Z,102562.73
2019-02-17T05:23:11.499Z,102562.24
2019-02-17T05:24:12.293Z,102562.30
2019-02-17T05:25:13.032Z,102561.87
2019-02-17T05:26:13.739Z,102561.35
2019-02-17T05:27:14.325Z,102561.25
2019-02-17T05:28:14.994Z,102560.99
2019-02-17T05:29:15.947Z,102560.73
2019-02-17T05:29:24.978Z,102565.00
2019-02-17T05:30:26.610Z,102565.00
2019-02-17T05:31:27.160Z,102564.50
2019-02-17T05:32:27.757Z,102564.20
2019-02-17T05:33:28.278Z,102563.70
2019-02-17T05:34:28.650Z,102563.06
2019-02-17T05:35:29.188Z,102562.59
2019-02-17T05:36:29.711Z,102562.45
2019-02-17T05:37:30.326Z,102561.89
2019-02-17T05:38:31.092Z,102561.55
2019-02-17T05:39:31.771Z,102561.09
2019-02-17T05:40:32.439Z,102560.69
2019-02-17T05:41:33.309Z,102560.88
2019-02-17T05:42:33.908Z,102560.91
2019-02-17T05:43:33.930Z,102560.08
2019-02-17T05:44:34.791Z,102559.77
2019-02-17T05:45:35.326Z,102559.20
2019-02-17T05:46:35.472Z,102558.77
2019-02-17T05:47:36.360Z,102558.61
2019-02-17T05:48:36.938Z,102557.72
2019-02-17T05:49:37.507Z,102557.05
2019-02-17T05:50:38.159Z,102556.72
2019-02-17T05:51:38.733Z,102555.89
2019-02-17T05:52:39.504Z,102555.72
2019-02-17T05:53:40.096Z,102555.13
2019-02-17T05:54:40.699Z,102554.95
2019-02-17T05:55:41.265Z,102554.20
2019-02-17T05:56:42.144Z,102553.53
2019-02-17T05:57:42.677Z,102553.01
2019-02-17T05:58:43.522Z,102552.74
2019-02-17T05:59:44.044Z,102552.31
2019-02-17T06:00:44.977Z,102551.72
2019-02-17T06:01:45.522Z,102551.36
2019-02-17T06:02:45.557Z,102550.77
2019-02-17T06:03:45.816Z,102550.94
2019-02-17T06:04:46.163Z,102550.47
2019-02-17T06:05:46.848Z,102550.80
2019-02-17T06:06:47.541Z,102550.38
2019-02-17T06:07:48.092Z,102549.75
2019-02-17T06:08:48.631Z,102549.69
2019-02-17T06:09:48.685Z,102549.69
2019-02-17T06:10:49.257Z,102549.35
2019-02-17T06:11:50.118Z,102549.02
2019-02-17T06:12:51.045Z,102549.69
2019-02-17T06:13:51.691Z,102549.52
2019-02-17T06:14:51.718Z,102549.09
2019-02-17T06:15:00.733Z,102552.05
2019-02-17T06:16:01.659Z,102551.78
2019-02-17T06:17:03.338Z,102551.39
2019-02-17T06:18:03.889Z,102550.86
2019-02-17T06:19:04.748Z,102551.35
2019-02-17T06:20:05.279Z,102551.19
2019-02-17T06:21:06.017Z,102551.28
2019-02-17T06:22:06.308Z,102551.05
2019-02-17T06:23:06.894Z,102551.22
2019-02-17T06:24:07.598Z,102551.31
2019-02-17T06:25:07.699Z,102551.48
2019-02-17T06:26:08.485Z,102551.81
2019-02-17T06:27:09.462Z,102552.08
2019-02-17T06:28:09.962Z,102551.81
2019-02-17T06:29:10.462Z,102552.15
2019-02-17T06:30:11.113Z,102552.48
2019-02-17T06:31:14.739Z,102553.14
2019-02-17T06:32:11.601Z,102553.31
2019-02-17T06:33:13.508Z,102553.05
2019-02-17T06:34:14.217Z,102553.28
2019-02-17T06:35:14.899Z,102553.61
2019-02-17T06:36:14.244Z,102554.24
2019-02-17T06:37:15.923Z,102554.58
2019-02-17T06:38:16.796Z,102555.48
2019-02-17T06:39:17.517Z,102556.44
2019-02-17T06:40:18.502Z,102556.34
2019-02-17T06:41:19.366Z,102556.68
2019-02-17T06:42:20.221Z,102557.71
2019-02-17T06:43:20.763Z,102557.78
2019-02-17T06:44:21.324Z,102558.45
2019-02-17T06:45:21.944Z,102558.52
2019-02-17T06:46:22.500Z,102558.55
2019-02-17T06:47:22.991Z,102559.13
2019-02-17T06:48:23.540Z,102559.19
2019-02-17T06:49:24.069Z,102559.59
2019-02-17T06:50:25.030Z,102559.69
2019-02-17T06:51:25.615Z,102559.76
2019-02-17T06:52:25.659Z,102559.16
2019-02-17T06:53:26.281Z,102559.56
2019-02-17T06:54:27.015Z,102560.06
2019-02-17T06:55:27.138Z,102559.97
2019-02-17T06:56:27.769Z,102560.09
2019-02-17T06:57:28.742Z,102560.44
2019-02-17T06:58:29.372Z,102561.00
2019-02-17T06:59:30.350Z,102560.83
2019-02-17T07:00:30.844Z,102561.13
2019-02-17T07:01:31.530Z,102561.53
2019-02-17T07:01:40.585Z,102556.64
2019-02-17T07:02:42.259Z,102556.55
2019-02-17T07:03:42.945Z,102557.05
2019-02-17T07:04:42.743Z,102557.17
2019-02-17T07:05:43.268Z,102557.10
2019-02-17T07:06:44.870Z,102557.20
2019-02-17T07:07:45.885Z,102557.06
2019-02-17T07:08:46.545Z,102556.83
2019-02-17T07:09:47.453Z,102556.95
2019-02-17T07:10:48.426Z,102556.69
2019-02-17T07:11:49.241Z,102556.79
2019-02-17T07:12:49.237Z,102557.05
2019-02-17T07:13:49.654Z,102557.41
2019-02-17T07:14:49.990Z,102557.34
2019-02-17T07:15:50.678Z,102557.31
2019-02-17T07:16:51.520Z,102557.14
2019-02-17T07:17:52.127Z,102557.23
2019-02-17T07:18:52.818Z,102557.53
2019-02-17T07:19:53.471Z,102556.97
2019-02-17T07:20:54.034Z,102556.89
2019-02-17T07:21:54.700Z,102557.09
2019-02-17T07:22:55.302Z,102556.89
2019-02-17T07:23:55.451Z,102556.72
2019-02-17T07:24:55.552Z,102557.18
2019-02-17T07:25:55.735Z,102556.94
2019-02-17T07:26:56.641Z,102557.20
2019-02-17T07:27:57.244Z,102557.47
2019-02-17T07:28:57.860Z,102557.83
2019-02-17T07:29:58.380Z,102557.92
2019-02-17T07:30:58.994Z,102558.72
2019-02-17T07:31:59.782Z,102558.52
2019-02-17T07:33:00.656Z,102558.44
2019-02-17T07:34:01.327Z,102558.47
2019-02-17T07:35:02.071Z,102558.33
2019-02-17T07:36:02.646Z,102558.09
2019-02-17T07:37:03.374Z,102557.96
2019-02-17T07:38:04.155Z,102558.32
2019-02-17T07:39:04.839Z,102558.58
2019-02-17T07:40:05.575Z,102558.58
2019-02-17T07:41:05.683Z,102558.95
2019-02-17T07:42:06.283Z,102559.27
2019-02-17T07:43:06.891Z,102559.64
2019-02-17T07:44:07.529Z,102560.06
2019-02-17T07:45:08.330Z,102560.42
2019-02-17T07:46:09.265Z,102560.19
2019-02-17T07:46:19.318Z,102564.59
2019-02-17T07:47:20.865Z,102564.26
2019-02-17T07:48:21.514Z,102564.19
2019-02-17T07:49:22.311Z,102564.09
2019-02-17T07:50:23.156Z,102563.83
2019-02-17T07:51:23.281Z,102563.73
2019-02-17T07:52:23.858Z,102563.47
2019-02-17T07:53:24.420Z,102563.97
2019-02-17T07:54:24.460Z,102563.83
2019-02-17T07:55:25.074Z,102563.93
2019-02-17T07:56:25.796Z,102564.00
2019-02-17T07:57:25.308Z,102563.77
2019-02-17T07:58:27.152Z,102563.76
2019-02-17T07:59:27.747Z,102563.50
2019-02-17T08:00:28.423Z,102563.43
2019-02-17T08:01:29.076Z,102563.50
2019-02-17T08:02:29.066Z,102563.80
2019-02-17T08:03:29.706Z,102563.47
2019-02-17T08:04:30.599Z,102563.77
2019-02-17T08:05:31.362Z,102564.01
2019-02-17T08:06:32.030Z,102564.58
2019-02-17T08:07:32.082Z,102564.41
2019-02-17T08:08:32.749Z,102564.65
2019-02-17T08:09:33.320Z,102564.55
2019-02-17T08:10:34.246Z,102565.05
2019-02-17T08:11:35.119Z,102565.19
2019-02-17T08:12:35.162Z,102564.33
2019-02-17T08:13:35.980Z,102564.73
2019-02-17T08:14:36.626Z,102564.20
2019-02-17T08:15:37.205Z,102564.20
2019-02-17T08:16:37.830Z,102564.08
2019-02-17T08:17:38.523Z,102563.58
2019-02-17T08:18:39.290Z,102563.39
2019-02-17T08:19:40.107Z,102563.42
2019-02-17T08:20:40.872Z,102563.09
2019-02-17T08:21:41.491Z,102562.34
2019-02-17T08:22:42.282Z,102562.56
2019-02-17T08:23:43.071Z,102561.91
2019-02-17T08:24:43.976Z,102561.24
2019-02-17T08:25:44.505Z,102560.64
2019-02-17T08:26:45.140Z,102559.81
2019-02-17T08:27:45.841Z,102559.48
2019-02-17T08:28:46.578Z,102558.98
2019-02-17T08:29:47.168Z,102558.42
2019-02-17T08:30:47.842Z,102557.75
2019-02-17T08:30:56.935Z,102557.76
2019-02-17T08:31:58.851Z,102556.99
2019-02-17T08:32:59.475Z,102557.09
2019-02-17T08:33:59.254Z,102557.09
2019-02-17T08:35:00.389Z,102556.86
2019-02-17T08:35:59.359Z,102556.72
2019-02-17T08:37:00.994Z,102556.31
2019-02-17T08:38:03.381Z,102555.68
2019-02-17T08:39:01.338Z,102555.20
2019-02-17T08:40:03.042Z,102554.91
2019-02-17T08:41:03.584Z,102554.10
2019-02-17T08:42:04.115Z,102553.30
2019-02-17T08:43:04.964Z,102552.97
2019-02-17T08:44:05.695Z,102552.92
2019-02-17T08:45:06.369Z,102552.77
2019-02-17T08:46:06.873Z,102551.83
2019-02-17T08:47:07.180Z,102551.77
2019-02-17T08:48:07.785Z,102550.96
2019-02-17T08:49:08.480Z,102550.62
2019-02-17T08:50:09.122Z,102549.66
2019-02-17T08:51:10.043Z,102548.66
2019-02-17T08:52:10.688Z,102548.52
2019-02-17T08:53:11.324Z,102547.52
2019-02-17T08:54:12.143Z,102546.56
2019-02-17T08:55:12.861Z,102546.25
2019-02-17T08:56:13.636Z,102545.35
2019-02-17T08:57:14.333Z,102544.45
2019-02-17T08:58:15.330Z,102543.81
2019-02-17T08:59:16.281Z,102542.68
2019-02-17T09:00:16.439Z,102542.45
2019-02-17T09:01:17.199Z,102541.91
2019-02-17T09:02:17.855Z,102541.27
2019-02-17T09:03:18.457Z,102540.39
2019-02-17T09:04:19.160Z,102540.05
2019-02-17T09:05:19.921Z,102539.93
2019-02-17T09:06:19.011Z,102539.15
2019-02-17T09:07:20.574Z,102538.97
2019-02-17T09:08:21.371Z,102538.22
2019-02-17T09:09:21.662Z,102537.70
2019-02-17T09:10:22.172Z,102536.92
2019-02-17T09:11:22.371Z,102536.91
2019-02-17T09:12:22.952Z,102536.62
2019-02-17T09:13:23.685Z,102536.44
2019-02-17T09:14:24.355Z,102535.92
2019-02-17T09:15:25.197Z,102535.30
2019-02-17T09:16:25.486Z,102535.61
2019-02-17T09:17:26.017Z,102534.77
2019-02-17T09:18:26.676Z,102534.08
2019-02-17T09:19:27.063Z,102533.81
2019-02-17T09:19:36.096Z,102516.11
2019-02-17T09:20:37.254Z,102515.72
2019-02-17T09:21:38.159Z,102516.38
2019-02-17T09:22:38.860Z,102516.72
2019-02-17T09:23:39.392Z,102516.88
2019-02-17T09:24:40.113Z,102516.95
2019-02-17T09:25:40.722Z,102516.88
2019-02-17T09:26:41.282Z,102516.91
2019-02-17T09:27:41.774Z,102517.06
2019-02-17T09:28:42.305Z,102517.23
2019-02-17T09:29:42.846Z,102517.09
2019-02-17T09:30:43.378Z,102517.52
2019-02-17T09:31:43.986Z,102517.55
2019-02-17T09:32:44.647Z,102517.20
2019-02-17T09:33:43.730Z,102517.63
2019-02-17T09:34:45.364Z,102517.30
2019-02-17T09:35:45.952Z,102516.89
2019-02-17T09:36:46.627Z,102516.98
2019-02-17T09:37:47.326Z,102516.09
2019-02-17T09:38:48.026Z,102516.02
2019-02-17T09:39:48.592Z,102515.97
2019-02-17T09:40:48.660Z,102516.25
2019-02-17T09:41:49.552Z,102515.53
2019-02-17T09:42:49.252Z,102515.41
2019-02-17T09:43:51.060Z,102514.79
2019-02-17T09:44:51.742Z,102514.40
2019-02-17T09:45:52.442Z,102513.45
2019-02-17T09:46:52.504Z,102513.83
2019-02-17T09:47:53.052Z,102512.78
2019-02-17T09:48:55.756Z,102511.56
2019-02-17T09:49:53.050Z,102510.34
2019-02-17T09:50:54.993Z,102509.95
2019-02-17T09:51:55.108Z,102509.30
2019-02-17T09:52:56.047Z,102508.52
2019-02-17T09:53:56.789Z,102507.97
2019-02-17T09:54:57.709Z,102507.34
2019-02-17T09:55:58.531Z,102506.47
2019-02-17T09:57:00.186Z,102505.94
2019-02-17T09:58:00.039Z,102505.16
2019-02-17T09:59:00.957Z,102504.69
2019-02-17T10:00:01.590Z,102503.90
2019-02-17T10:01:02.236Z,102503.16
2019-02-17T10:02:02.956Z,102502.73
2019-02-17T10:03:03.691Z,102501.33
2019-02-17T10:04:03.833Z,102500.27
2019-02-17T10:05:04.331Z,102498.81
2019-02-17T10:06:05.128Z,102498.16
2019-02-17T10:07:05.989Z,102496.75
2019-02-17T10:07:16.792Z,102486.54
2019-02-17T10:08:18.482Z,102486.38
2019-02-17T10:09:18.958Z,102486.05
2019-02-17T10:10:19.484Z,102485.80
2019-02-17T10:11:20.361Z,102485.77
2019-02-17T10:12:21.023Z,102485.50
2019-02-17T10:13:21.697Z,102485.29
2019-02-17T10:14:22.395Z,102484.16
2019-02-17T10:15:23.068Z,102483.86
2019-02-17T10:16:23.862Z,102483.41
2019-02-17T10:17:24.471Z,102483.26
2019-02-17T10:18:25.041Z,102482.48
2019-02-17T10:19:25.606Z,102482.19
2019-02-17T10:20:25.157Z,102481.91
2019-02-17T10:21:26.825Z,102481.09
2019-02-17T10:22:27.060Z,102480.54
2019-02-17T10:23:27.926Z,102479.83
2019-02-17T10:24:28.889Z,102479.42
2019-02-17T10:25:28.888Z,102478.30
2019-02-17T10:26:29.508Z,102477.89
2019-02-17T10:27:30.245Z,102477.05
2019-02-17T10:28:30.248Z,102476.33
2019-02-17T10:29:31.087Z,102475.77
2019-02-17T10:30:31.814Z,102474.92
2019-02-17T10:31:32.345Z,102474.34
2019-02-17T10:32:38.345Z,102473.21
2019-02-17T10:33:32.213Z,102472.69
2019-02-17T10:34:33.968Z,102472.37
2019-02-17T10:35:33.868Z,102471.13
2019-02-17T10:36:34.735Z,102470.70
2019-02-17T10:37:35.459Z,102469.80
2019-02-17T10:38:36.231Z,102468.80
2019-02-17T10:39:36.374Z,102468.11
2019-02-17T10:40:36.908Z,102467.64
2019-02-17T10:41:37.359Z,102466.80
2019-02-17T10:42:39.128Z,102465.28
2019-02-17T10:43:39.317Z,102464.87
2019-02-17T10:44:39.799Z,102464.58
2019-02-17T10:45:40.663Z,102463.68
2019-02-17T10:46:41.351Z,102462.81
2019-02-17T10:47:42.323Z,102462.33
2019-02-17T10:48:43.107Z,102461.63
2019-02-17T10:49:43.135Z,102460.96
2019-02-17T10:50:43.909Z,102460.20
2019-02-17T10:51:44.621Z,102459.09
2019-02-17T10:52:45.506Z,102458.00
2019-02-17T10:53:46.478Z,102456.66
2019-02-17T10:54:47.192Z,102455.56
2019-02-17T10:55:48.000Z,102454.70
2019-02-17T10:56:47.397Z,102453.94
2019-02-17T10:57:49.248Z,102452.69
2019-02-17T10:58:50.025Z,102452.11
2019-02-17T10:59:50.931Z,102451.27
2019-02-17T11:00:51.866Z,102450.24
2019-02-17T11:01:02.440Z,102433.80
2019-02-17T11:02:03.891Z,102433.23
2019-02-17T11:03:04.444Z,102433.05
2019-02-17T11:04:05.237Z,102433.06
2019-02-17T11:05:05.516Z,102432.30
2019-02-17T11:06:06.226Z,102432.39
2019-02-17T11:07:06.986Z,102432.22
2019-02-17T11:08:07.461Z,102432.32
2019-02-17T11:09:08.178Z,102432.14
2019-02-17T11:10:09.013Z,102431.30
2019-02-17T11:11:09.703Z,102430.87
2019-02-17T11:12:09.277Z,102430.02
2019-02-17T11:13:11.212Z,102429.20
2019-02-17T11:14:17.821Z,102428.86
2019-02-17T11:15:10.407Z,102427.58
2019-02-17T11:16:11.970Z,102427.25
2019-02-17T11:17:12.565Z,102426.14
2019-02-17T11:18:13.413Z,102425.11
2019-02-17T11:19:13.939Z,102424.62